createdAt,value
2023-05-21T00:00:40.987Z,94390.00
2023-05-21T00:01:41.023Z,94384.00
2023-05-21T00:02:41.125Z,94384.00
2023-05-21T00:03:41.162Z,94388.00
2023-05-21T00:04:41.033Z,94386.00
2023-05-21T00:05:41.056Z,94390.00
2023-05-21T00:06:41.018Z,94390.00
2023-05-21T00:07:41.025Z,94386.00
2023-05-21T00:08:41.054Z,94390.00
2023-05-21T00:09:41.045Z,94386.00
2023-05-21T00:10:41.177Z,94388.00
2023-05-21T00:11:41.060Z,94390.00
2023-05-21T00:12:41.044Z,94390.00
2023-05-21T00:13:41.053Z,94392.00
2023-05-21T00:14:41.059Z,94390.00
2023-05-21T00:15:41.105Z,94392.00
2023-05-21T00:16:41.126Z,94390.00
2023-05-21T00:17:41.148Z,94386.00
2023-05-21T00:18:41.089Z,94388.00
2023-05-21T00:19:41.105Z,94388.00
2023-05-21T00:20:41.082Z,94388.00
2023-05-21T00:21:41.086Z,94388.00
2023-05-21T00:22:41.110Z,94388.00
2023-05-21T00:23:41.127Z,94390.00
2023-05-21T00:24:41.111Z,94390.00
2023-05-21T00:25:41.117Z,94386.00
2023-05-21T00:26:41.131Z,94384.00
2023-05-21T00:27:41.124Z,94386.00
2023-05-21T00:28:41.152Z,94386.00
2023-05-21T00:29:43.552Z,94386.00
2023-05-21T00:30:41.158Z,94388.00
2023-05-21T00:31:41.189Z,94386.00
2023-05-21T00:32:41.144Z,94386.00
2023-05-21T00:33:41.096Z,94384.00
2023-05-21T00:34:41.107Z,94382.00
2023-05-21T00:35:41.111Z,94380.00
2023-05-21T00:36:41.100Z,94384.00
2023-05-21T00:37:41.066Z,94386.00
2023-05-21T00:38:41.055Z,94384.00
2023-05-21T00:39:41.042Z,94384.00
2023-05-21T00:40:41.038Z,94384.00
2023-05-21T00:41:41.040Z,94382.00
2023-05-21T00:42:41.023Z,94380.00
2023-05-21T00:43:41.013Z,94378.00
2023-05-21T00:44:41.011Z,94380.00
2023-05-21T00:45:41.059Z,94382.00
2023-05-21T00:46:40.999Z,94384.00
2023-05-21T00:47:41.008Z,94382.00
2023-05-21T00:48:40.977Z,94384.00
2023-05-21T00:49:40.993Z,94386.00
2023-05-21T00:50:41.015Z,94386.00
2023-05-21T00:51:40.973Z,94386.00
2023-05-21T00:52:40.952Z,94386.00
2023-05-21T00:53:40.944Z,94386.00
2023-05-21T00:54:40.948Z,94390.00
2023-05-21T00:55:40.958Z,94390.00
2023-05-21T00:56:40.938Z,94390.00
2023-05-21T00:57:40.932Z,94388.00
2023-05-21T00:58:40.919Z,94386.00
2023-05-21T00:59:40.941Z,94384.00
2023-05-21T01:00:40.923Z,94388.00
2023-05-21T01:01:41.000Z,94394.00
2023-05-21T01:02:41.039Z,94398.00
2023-05-21T01:03:40.991Z,94396.00
2023-05-21T01:04:40.906Z,94398.00
2023-05-21T01:05:40.883Z,94396.00
2023-05-21T01:06:40.902Z,94390.00
2023-05-21T01:07:40.883Z,94390.00
2023-05-21T01:08:40.945Z,94388.00
2023-05-21T01:09:40.840Z,94388.00
2023-05-21T01:10:40.832Z,94386.00
2023-05-21T01:11:40.856Z,94390.00
2023-05-21T01:12:40.817Z,94388.00
2023-05-21T01:13:40.826Z,94388.00
2023-05-21T01:14:40.822Z,94384.00
2023-05-21T01:15:40.847Z,94384.00
2023-05-21T01:16:40.855Z,94386.00
2023-05-21T01:17:40.791Z,94386.00
2023-05-21T01:18:40.818Z,94388.00
2023-05-21T01:19:40.782Z,94386.00
2023-05-21T01:20:40.817Z,94384.00
2023-05-21T01:21:40.749Z,94382.00
2023-05-21T01:22:40.772Z,94380.00
2023-05-21T01:23:40.749Z,94378.00
2023-05-21T01:24:40.732Z,94376.00
2023-05-21T01:25:41.093Z,94368.00
2023-05-21T01:26:40.713Z,94376.00
2023-05-21T01:27:40.709Z,94376.00
2023-05-21T01:28:40.700Z,94368.00
2023-05-21T01:29:40.695Z,94368.00
2023-05-21T01:30:41.104Z,94378.00
2023-05-21T01:31:40.687Z,94376.00
2023-05-21T01:32:40.722Z,94376.00
2023-05-21T01:33:40.728Z,94368.00
2023-05-21T01:34:40.663Z,94366.00
2023-05-21T01:35:40.667Z,94366.00
2023-05-21T01:36:40.642Z,94366.00
2023-05-21T01:37:40.654Z,94364.00
2023-05-21T01:38:40.667Z,94366.00
2023-05-21T01:39:40.657Z,94364.00
2023-05-21T01:40:40.635Z,94364.00
2023-05-21T01:41:40.621Z,94360.00
2023-05-21T01:42:40.609Z,94362.00
2023-05-21T01:43:40.613Z,94364.00
2023-05-21T01:44:40.601Z,94364.00
2023-05-21T01:45:40.597Z,94366.00
2023-05-21T01:46:40.585Z,94362.00
2023-05-21T01:47:40.690Z,94360.00
2023-05-21T01:48:40.565Z,94360.00
2023-05-21T01:49:40.556Z,94362.00
2023-05-21T01:50:40.576Z,94360.00
2023-05-21T01:51:40.550Z,94360.00
2023-05-21T01:52:40.539Z,94360.00
2023-05-21T01:53:40.528Z,94360.00
2023-05-21T01:54:40.527Z,94353.00
2023-05-21T01:55:40.526Z,94353.00
2023-05-21T01:56:40.527Z,94353.00
2023-05-21T01:57:40.543Z,94356.00
2023-05-21T01:58:40.508Z,94356.00
2023-05-21T01:59:40.489Z,94356.00
2023-05-21T02:00:40.476Z,94358.00
2023-05-21T02:01:40.520Z,94354.00
2023-05-21T02:02:40.578Z,94354.00
2023-05-21T02:03:40.516Z,94360.00
2023-05-21T02:04:40.459Z,94354.00
2023-05-21T02:05:40.433Z,94354.00
2023-05-21T02:06:40.439Z,94354.00
2023-05-21T02:07:40.454Z,94358.00
2023-05-21T02:08:40.432Z,94356.00
2023-05-21T02:09:40.411Z,94358.00
2023-05-21T02:10:40.417Z,94360.00
2023-05-21T02:11:40.392Z,94358.00
2023-05-21T02:12:40.389Z,94358.00
2023-05-21T02:13:40.380Z,94356.00
2023-05-21T02:14:40.365Z,94356.00
2023-05-21T02:15:40.356Z,94358.00
2023-05-21T02:16:40.451Z,94358.00
2023-05-21T02:17:40.388Z,94360.00
2023-05-21T02:18:40.340Z,94358.00
2023-05-21T02:19:40.350Z,94358.00
2023-05-21T02:20:40.337Z,94360.00
2023-05-21T02:21:40.345Z,94360.00
2023-05-21T02:22:40.331Z,94364.00
2023-05-21T02:23:40.306Z,94366.00
2023-05-21T02:24:40.313Z,94364.00
2023-05-21T02:25:40.313Z,94364.00
2023-05-21T02:26:40.311Z,94364.00
2023-05-21T02:27:40.283Z,94360.00
2023-05-21T02:28:40.275Z,94362.00
2023-05-21T02:29:40.287Z,94360.00
2023-05-21T02:30:40.277Z,94362.00
2023-05-21T02:31:40.247Z,94362.00
2023-05-21T02:32:40.275Z,94362.00
2023-05-21T02:33:40.261Z,94362.00
2023-05-21T02:34:40.280Z,94362.00
2023-05-21T02:35:40.249Z,94360.00
2023-05-21T02:36:40.226Z,94360.00
2023-05-21T02:37:40.229Z,94364.00
2023-05-21T02:38:40.244Z,94364.00
2023-05-21T02:39:40.226Z,94364.00
2023-05-21T02:40:40.201Z,94366.00
2023-05-21T02:41:40.217Z,94364.00
2023-05-21T02:42:40.433Z,94362.00
2023-05-21T02:43:40.197Z,94358.00
2023-05-21T02:44:40.169Z,94353.00
2023-05-21T02:45:40.229Z,94353.00
2023-05-21T02:46:40.178Z,94353.00
2023-05-21T02:47:40.181Z,94354.00
2023-05-21T02:48:40.140Z,94353.00
2023-05-21T02:49:40.138Z,94353.00
2023-05-21T02:50:40.129Z,94354.00
2023-05-21T02:51:40.134Z,94353.00
2023-05-21T02:52:40.114Z,94353.00
2023-05-21T02:53:40.113Z,94351.00
2023-05-21T02:54:40.110Z,94351.00
2023-05-21T02:55:40.104Z,94351.00
2023-05-21T02:56:40.087Z,94353.00
2023-05-21T02:57:40.078Z,94354.00
2023-05-21T02:58:40.081Z,94354.00
2023-05-21T02:59:40.070Z,94353.00
2023-05-21T03:00:40.090Z,94353.00
2023-05-21T03:01:40.084Z,94351.00
2023-05-21T03:02:40.214Z,94353.00
2023-05-21T03:03:40.075Z,94351.00
2023-05-21T03:04:40.021Z,94354.00
2023-05-21T03:05:40.050Z,94354.00
2023-05-21T03:06:40.028Z,94356.00
2023-05-21T03:07:40.014Z,94354.00
2023-05-21T03:08:40.014Z,94353.00
2023-05-21T03:09:39.992Z,94351.00
2023-05-21T03:10:40.019Z,94353.00
2023-05-21T03:11:39.976Z,94354.00
2023-05-21T03:12:39.961Z,94358.00
2023-05-21T03:13:39.982Z,94360.00
2023-05-21T03:14:39.958Z,94364.00
2023-05-21T03:15:39.985Z,94362.00
2023-05-21T03:16:40.026Z,94366.00
2023-05-21T03:17:39.956Z,94362.00
2023-05-21T03:18:39.937Z,94366.00
2023-05-21T03:19:39.936Z,94364.00
2023-05-21T03:20:39.908Z,94364.00
2023-05-21T03:21:39.906Z,94364.00
2023-05-21T03:22:39.905Z,94364.00
2023-05-21T03:23:39.887Z,94364.00
2023-05-21T03:24:39.910Z,94360.00
2023-05-21T03:25:39.877Z,94362.00
2023-05-21T03:26:39.904Z,94364.00
2023-05-21T03:27:39.884Z,94364.00
2023-05-21T03:28:39.857Z,94364.00
2023-05-21T03:29:39.857Z,94368.00
2023-05-21T03:30:39.926Z,94368.00
2023-05-21T03:31:39.872Z,94366.00
2023-05-21T03:32:39.853Z,94366.00
2023-05-21T03:33:39.820Z,94364.00
2023-05-21T03:34:39.815Z,94360.00
2023-05-21T03:35:39.824Z,94358.00
2023-05-21T03:36:39.798Z,94360.00
2023-05-21T03:37:39.812Z,94362.00
2023-05-21T03:38:39.796Z,94364.00
2023-05-21T03:39:39.787Z,94376.00
2023-05-21T03:40:39.808Z,94380.00
2023-05-21T03:41:39.785Z,94378.00
2023-05-21T03:42:39.795Z,94366.00
2023-05-21T03:43:39.806Z,94376.00
2023-05-21T03:44:39.838Z,94364.00
2023-05-21T03:45:42.192Z,94376.00
2023-05-21T03:46:39.854Z,94380.00
2023-05-21T03:47:39.855Z,94380.00
2023-05-21T03:48:39.806Z,94380.00
2023-05-21T03:49:39.805Z,94380.00
2023-05-21T03:50:39.788Z,94368.00
2023-05-21T03:51:39.776Z,94376.00
2023-05-21T03:52:39.768Z,94376.00
2023-05-21T03:53:39.796Z,94364.00
2023-05-21T03:54:39.763Z,94364.00
2023-05-21T03:55:39.767Z,94366.00
2023-05-21T03:56:39.771Z,94366.00
2023-05-21T03:57:39.755Z,94366.00
2023-05-21T03:58:39.735Z,94366.00
2023-05-21T03:59:39.733Z,94366.00
2023-05-21T04:00:39.748Z,94366.00
2023-05-21T04:01:39.748Z,94376.00
2023-05-21T04:02:39.755Z,94376.00
2023-05-21T04:03:40.996Z,94376.00
2023-05-21T04:04:39.728Z,94378.00
2023-05-21T04:05:39.702Z,94376.00
2023-05-21T04:06:39.704Z,94376.00
2023-05-21T04:07:39.689Z,94382.00
2023-05-21T04:08:39.713Z,94384.00
2023-05-21T04:09:39.672Z,94384.00
2023-05-21T04:10:39.682Z,94382.00
2023-05-21T04:11:39.663Z,94378.00
2023-05-21T04:12:39.662Z,94380.00
2023-05-21T04:13:39.656Z,94384.00
2023-05-21T04:14:39.641Z,94388.00
2023-05-21T04:15:39.816Z,94390.00
2023-05-21T04:16:39.678Z,94390.00
2023-05-21T04:17:39.688Z,94390.00
2023-05-21T04:18:39.617Z,94390.00
2023-05-21T04:19:39.663Z,94390.00
2023-05-21T04:20:39.619Z,94386.00
2023-05-21T04:21:39.646Z,94388.00
2023-05-21T04:22:39.598Z,94388.00
2023-05-21T04:23:39.610Z,94388.00
2023-05-21T04:24:39.593Z,94386.00
2023-05-21T04:25:39.612Z,94386.00
2023-05-21T04:26:39.583Z,94384.00
2023-05-21T04:27:39.566Z,94386.00
2023-05-21T04:28:39.572Z,94388.00
2023-05-21T04:29:39.538Z,94390.00
2023-05-21T04:30:39.570Z,94390.00
2023-05-21T04:31:39.592Z,94390.00
2023-05-21T04:32:39.565Z,94388.00
2023-05-21T04:33:39.531Z,94388.00
2023-05-21T04:34:39.519Z,94388.00
2023-05-21T04:35:39.514Z,94388.00
2023-05-21T04:36:39.506Z,94390.00
2023-05-21T04:37:39.503Z,94392.00
2023-05-21T04:38:39.492Z,94392.00
2023-05-21T04:39:39.477Z,94388.00
2023-05-21T04:40:39.497Z,94390.00
2023-05-21T04:41:39.461Z,94392.00
2023-05-21T04:42:39.462Z,94396.00
2023-05-21T04:43:39.467Z,94396.00
2023-05-21T04:44:39.450Z,94398.00
2023-05-21T04:45:39.469Z,94398.00
2023-05-21T04:46:41.668Z,94400.00
2023-05-21T04:47:39.528Z,94402.00
2023-05-21T04:48:39.500Z,94404.00
2023-05-21T04:49:39.474Z,94402.00
2023-05-21T04:50:39.478Z,94404.00
2023-05-21T04:51:39.479Z,94409.00
2023-05-21T04:52:39.485Z,94411.00
2023-05-21T04:53:39.483Z,94409.00
2023-05-21T04:54:39.494Z,94411.00
2023-05-21T04:55:39.523Z,94413.00
2023-05-21T04:56:39.531Z,94413.00
2023-05-21T04:57:39.548Z,94413.00
2023-05-21T04:58:39.544Z,94413.00
2023-05-21T04:59:39.549Z,94409.00
2023-05-21T05:00:39.576Z,94407.00
2023-05-21T05:01:39.573Z,94407.00
2023-05-21T05:02:39.621Z,94407.00
2023-05-21T05:03:39.650Z,94407.00
2023-05-21T05:04:39.584Z,94409.00
2023-05-21T05:05:39.776Z,94407.00
2023-05-21T05:06:39.600Z,94406.00
2023-05-21T05:07:39.606Z,94409.00
2023-05-21T05:08:39.617Z,94406.00
2023-05-21T05:09:39.635Z,94407.00
2023-05-21T05:10:39.639Z,94406.00
2023-05-21T05:11:39.644Z,94404.00
2023-05-21T05:12:39.642Z,94404.00
2023-05-21T05:13:39.805Z,94409.00
2023-05-21T05:14:39.648Z,94406.00
2023-05-21T05:15:39.657Z,94406.00
2023-05-21T05:16:39.718Z,94406.00
2023-05-21T05:17:39.701Z,94406.00
2023-05-21T05:18:39.679Z,94404.00
2023-05-21T05:19:39.691Z,94402.00
2023-05-21T05:20:39.699Z,94400.00
2023-05-21T05:21:39.695Z,94400.00
2023-05-21T05:22:39.696Z,94400.00
2023-05-21T05:23:39.725Z,94394.00
2023-05-21T05:24:39.696Z,94388.00
2023-05-21T05:25:39.821Z,94388.00
2023-05-21T05:26:39.709Z,94386.00
2023-05-21T05:27:39.701Z,94388.00
2023-05-21T05:28:39.726Z,94388.00
2023-05-21T05:29:39.730Z,94390.00
2023-05-21T05:30:39.782Z,94386.00
2023-05-21T05:31:39.747Z,94384.00
2023-05-21T05:32:39.751Z,94386.00
2023-05-21T05:33:39.745Z,94390.00
2023-05-21T05:34:39.770Z,94390.00
2023-05-21T05:35:39.784Z,94390.00
2023-05-21T05:36:39.771Z,94382.00
2023-05-21T05:37:39.817Z,94382.00
2023-05-21T05:38:39.794Z,94380.00
2023-05-21T05:39:39.840Z,94380.00
2023-05-21T05:40:39.797Z,94380.00
2023-05-21T05:41:39.833Z,94382.00
2023-05-21T05:42:39.824Z,94378.00
2023-05-21T05:43:39.824Z,94378.00
2023-05-21T05:44:39.835Z,94376.00
2023-05-21T05:45:39.911Z,94378.00
2023-05-21T05:46:39.908Z,94378.00
2023-05-21T05:47:39.860Z,94378.00
2023-05-21T05:48:39.851Z,94378.00
2023-05-21T05:49:39.869Z,94378.00
2023-05-21T05:50:39.860Z,94380.00
2023-05-21T05:51:39.873Z,94384.00
2023-05-21T05:52:39.878Z,94376.00
2023-05-21T05:53:39.881Z,94382.00
2023-05-21T05:54:39.879Z,94368.00
2023-05-21T05:55:39.881Z,94378.00
2023-05-21T05:56:39.911Z,94376.00
2023-05-21T05:57:39.920Z,94376.00
2023-05-21T05:58:39.925Z,94376.00
2023-05-21T05:59:39.921Z,94378.00
2023-05-21T06:00:39.928Z,94378.00
2023-05-21T06:01:39.935Z,94380.00
2023-05-21T06:02:39.968Z,94378.00
2023-05-21T06:03:40.181Z,94378.00
2023-05-21T06:04:39.936Z,94380.00
2023-05-21T06:05:40.304Z,94380.00
2023-05-21T06:06:39.945Z,94380.00
2023-05-21T06:07:39.974Z,94378.00
2023-05-21T06:08:39.979Z,94378.00
2023-05-21T06:09:39.960Z,94380.00
2023-05-21T06:10:39.973Z,94384.00
2023-05-21T06:11:39.999Z,94382.00
2023-05-21T06:12:39.979Z,94380.00
2023-05-21T06:13:39.986Z,94382.00
2023-05-21T06:14:40.005Z,94382.00
2023-05-21T06:15:40.014Z,94382.00
2023-05-21T06:16:40.035Z,94382.00
2023-05-21T06:17:40.046Z,94380.00
2023-05-21T06:18:40.022Z,94382.00
2023-05-21T06:19:40.021Z,94384.00
2023-05-21T06:20:40.031Z,94382.00
2023-05-21T06:21:40.059Z,94384.00
2023-05-21T06:22:40.061Z,94382.00
2023-05-21T06:23:40.024Z,94384.00
2023-05-21T06:24:40.019Z,94382.00
2023-05-21T06:25:40.128Z,94376.00
2023-05-21T06:26:40.011Z,94378.00
2023-05-21T06:27:40.016Z,94376.00
2023-05-21T06:28:40.022Z,94368.00
2023-05-21T06:29:40.025Z,94366.00
2023-05-21T06:30:40.026Z,94364.00
2023-05-21T06:31:40.016Z,94364.00
2023-05-21T06:32:40.114Z,94362.00
2023-05-21T06:33:40.089Z,94360.00
2023-05-21T06:34:40.027Z,94364.00
2023-05-21T06:35:40.038Z,94362.00
2023-05-21T06:36:40.045Z,94366.00
2023-05-21T06:37:40.036Z,94368.00
2023-05-21T06:38:40.048Z,94362.00
2023-05-21T06:39:40.064Z,94362.00
2023-05-21T06:40:40.040Z,94358.00
2023-05-21T06:41:40.037Z,94360.00
2023-05-21T06:42:40.047Z,94358.00
2023-05-21T06:43:40.049Z,94360.00
2023-05-21T06:44:40.064Z,94360.00
2023-05-21T06:45:40.313Z,94360.00
2023-05-21T06:46:40.037Z,94360.00
2023-05-21T06:47:40.150Z,94362.00
2023-05-21T06:48:40.031Z,94362.00
2023-05-21T06:49:40.047Z,94360.00
2023-05-21T06:50:40.036Z,94360.00
2023-05-21T06:51:40.021Z,94362.00
2023-05-21T06:52:40.067Z,94366.00
2023-05-21T06:53:40.018Z,94362.00
2023-05-21T06:54:40.024Z,94362.00
2023-05-21T06:55:40.038Z,94360.00
2023-05-21T06:56:40.002Z,94360.00
2023-05-21T06:57:40.008Z,94360.00
2023-05-21T06:58:40.020Z,94358.00
2023-05-21T06:59:40.048Z,94358.00
2023-05-21T07:00:40.001Z,94358.00
2023-05-21T07:01:40.026Z,94358.00
2023-05-21T07:02:40.065Z,94358.00
2023-05-21T07:03:40.027Z,94360.00
2023-05-21T07:04:39.985Z,94362.00
2023-05-21T07:05:40.190Z,94360.00
2023-05-21T07:06:39.995Z,94362.00
2023-05-21T07:07:39.996Z,94360.00
2023-05-21T07:08:39.979Z,94358.00
2023-05-21T07:09:39.986Z,94358.00
2023-05-21T07:10:39.991Z,94360.00
2023-05-21T07:11:39.970Z,94356.00
2023-05-21T07:12:39.968Z,94353.00
2023-05-21T07:13:39.977Z,94351.00
2023-05-21T07:14:39.988Z,94349.00
2023-05-21T07:15:39.996Z,94351.00
2023-05-21T07:16:39.991Z,94349.00
2023-05-21T07:17:40.004Z,94349.00
2023-05-21T07:18:39.968Z,94349.00
2023-05-21T07:19:39.983Z,94347.00
2023-05-21T07:20:39.948Z,94345.00
2023-05-21T07:21:39.964Z,94347.00
2023-05-21T07:22:39.978Z,94343.00
2023-05-21T07:23:39.963Z,94343.00
2023-05-21T07:24:39.967Z,94341.00
2023-05-21T07:25:39.979Z,94341.00
2023-05-21T07:26:39.991Z,94337.00
2023-05-21T07:27:40.015Z,94335.00
2023-05-21T07:28:39.994Z,94341.00
2023-05-21T07:29:39.989Z,94339.00
2023-05-21T07:30:40.005Z,94337.00
2023-05-21T07:31:40.133Z,94335.00
2023-05-21T07:32:40.039Z,94331.00
2023-05-21T07:33:39.991Z,94327.00
2023-05-21T07:34:39.978Z,94327.00
2023-05-21T07:35:39.993Z,94325.00
2023-05-21T07:36:40.034Z,94323.00
2023-05-21T07:37:40.029Z,94321.00
2023-05-21T07:38:40.075Z,94317.00
2023-05-21T07:39:40.095Z,94319.00
2023-05-21T07:40:40.110Z,94317.00
2023-05-21T07:41:40.107Z,94321.00
2023-05-21T07:42:40.152Z,94319.00
2023-05-21T07:43:40.213Z,94317.00
2023-05-21T07:44:40.208Z,94313.00
2023-05-21T07:45:40.261Z,94313.00
2023-05-21T07:46:40.503Z,94315.00
2023-05-21T07:47:40.345Z,94315.00
2023-05-21T07:48:40.370Z,94313.00
2023-05-21T07:49:40.426Z,94313.00
2023-05-21T07:50:40.465Z,94313.00
2023-05-21T07:51:40.481Z,94313.00
2023-05-21T07:52:40.579Z,94317.00
2023-05-21T07:53:40.582Z,94315.00
2023-05-21T07:54:40.645Z,94317.00
2023-05-21T07:55:40.676Z,94313.00
2023-05-21T07:56:40.726Z,94317.00
2023-05-21T07:57:40.768Z,94309.00
2023-05-21T07:58:40.847Z,94311.00
2023-05-21T07:59:40.873Z,94309.00
2023-05-21T08:00:40.945Z,94307.00
2023-05-21T08:01:41.026Z,94307.00
2023-05-21T08:02:41.099Z,94309.00
2023-05-21T08:03:41.232Z,94306.00
2023-05-21T08:04:41.550Z,94306.00
2023-05-21T08:05:41.255Z,94307.00
2023-05-21T08:06:41.328Z,94304.00
2023-05-21T08:07:41.385Z,94304.00
2023-05-21T08:08:41.431Z,94304.00
2023-05-21T08:09:41.512Z,94298.00
2023-05-21T08:10:41.569Z,94294.00
2023-05-21T08:11:41.673Z,94294.00
2023-05-21T08:12:41.693Z,94294.00
2023-05-21T08:13:41.755Z,94298.00
2023-05-21T08:14:41.831Z,94300.00
2023-05-21T08:15:41.888Z,94302.00
2023-05-21T08:16:42.021Z,94300.00
2023-05-21T08:17:42.049Z,94300.00
2023-05-21T08:18:42.110Z,94298.00
2023-05-21T08:19:42.149Z,94292.00
2023-05-21T08:20:42.193Z,94294.00
2023-05-21T08:21:42.261Z,94290.00
2023-05-21T08:22:42.311Z,94290.00
2023-05-21T08:23:42.382Z,94288.00
2023-05-21T08:24:42.418Z,94286.00
2023-05-21T08:25:42.496Z,94288.00
2023-05-21T08:26:42.554Z,94288.00
2023-05-21T08:27:42.609Z,94290.00
2023-05-21T08:28:42.668Z,94288.00
2023-05-21T08:29:42.730Z,94290.00
2023-05-21T08:30:42.796Z,94288.00
2023-05-21T08:31:42.881Z,94284.00
2023-05-21T08:32:42.973Z,94284.00
2023-05-21T08:33:42.965Z,94286.00
2023-05-21T08:34:43.737Z,94284.00
2023-05-21T08:35:43.073Z,94284.00
2023-05-21T08:36:43.160Z,94284.00
2023-05-21T08:37:43.180Z,94280.00
2023-05-21T08:38:43.254Z,94280.00
2023-05-21T08:39:43.289Z,94276.00
2023-05-21T08:40:43.359Z,94278.00
2023-05-21T08:41:43.418Z,94274.00
2023-05-21T08:42:43.482Z,94278.00
2023-05-21T08:43:43.532Z,94278.00
2023-05-21T08:44:43.578Z,94276.00
2023-05-21T08:45:43.662Z,94276.00
2023-05-21T08:46:43.722Z,94272.00
2023-05-21T08:47:43.739Z,94274.00
2023-05-21T08:48:43.772Z,94274.00
2023-05-21T08:49:43.824Z,94272.00
2023-05-21T08:50:43.880Z,94272.00
2023-05-21T08:51:43.946Z,94270.00
2023-05-21T08:52:43.978Z,94268.00
2023-05-21T08:53:44.015Z,94266.00
2023-05-21T08:54:44.077Z,94264.00
2023-05-21T08:55:44.133Z,94259.00
2023-05-21T08:56:44.164Z,94262.00
2023-05-21T08:57:44.228Z,94259.00
2023-05-21T08:58:44.273Z,94260.00
2023-05-21T08:59:44.322Z,94260.00
2023-05-21T09:00:44.345Z,94262.00
2023-05-21T09:01:44.453Z,94260.00
2023-05-21T09:02:44.485Z,94260.00
2023-05-21T09:03:44.567Z,94260.00
2023-05-21T09:04:44.541Z,94262.00
2023-05-21T09:05:44.574Z,94257.00
2023-05-21T09:06:44.646Z,94259.00
2023-05-21T09:07:44.666Z,94255.00
2023-05-21T09:08:44.749Z,94255.00
2023-05-21T09:09:44.774Z,94257.00
2023-05-21T09:10:44.792Z,94262.00
2023-05-21T09:11:44.849Z,94260.00
2023-05-21T09:12:44.913Z,94259.00
2023-05-21T09:13:44.927Z,94255.00
2023-05-21T09:14:45.019Z,94257.00
2023-05-21T09:15:45.017Z,94257.00
2023-05-21T09:16:45.126Z,94255.00
2023-05-21T09:17:45.132Z,94257.00
2023-05-21T09:18:45.175Z,94255.00
2023-05-21T09:19:45.154Z,94255.00
2023-05-21T09:20:45.205Z,94253.00
2023-05-21T09:21:45.232Z,94253.00
2023-05-21T09:22:45.263Z,94251.00
2023-05-21T09:23:45.296Z,94249.00
2023-05-21T09:24:45.352Z,94249.00
2023-05-21T09:25:45.364Z,94249.00
2023-05-21T09:26:45.401Z,94245.00
2023-05-21T09:27:45.444Z,94245.00
2023-05-21T09:28:45.478Z,94247.00
2023-05-21T09:29:45.495Z,94251.00
2023-05-21T09:30:45.564Z,94247.00
2023-05-21T09:31:45.711Z,94251.00
2023-05-21T09:32:45.649Z,94249.00
2023-05-21T09:33:45.625Z,94243.00
2023-05-21T09:34:45.669Z,94247.00
2023-05-21T09:35:45.712Z,94247.00
2023-05-21T09:36:45.728Z,94245.00
2023-05-21T09:37:45.742Z,94245.00
2023-05-21T09:38:45.761Z,94241.00
2023-05-21T09:39:45.795Z,94241.00
2023-05-21T09:40:45.843Z,94239.00
2023-05-21T09:41:45.874Z,94237.00
2023-05-21T09:42:45.876Z,94233.00
2023-05-21T09:43:45.903Z,94237.00
2023-05-21T09:44:45.963Z,94231.00
2023-05-21T09:45:45.932Z,94233.00
2023-05-21T09:46:45.973Z,94229.00
2023-05-21T09:47:46.020Z,94227.00
2023-05-21T09:48:45.995Z,94225.00
2023-05-21T09:49:46.007Z,94225.00
2023-05-21T09:50:46.275Z,94221.00
2023-05-21T09:51:46.049Z,94217.00
2023-05-21T09:52:46.068Z,94217.00
2023-05-21T09:53:46.121Z,94223.00
2023-05-21T09:54:46.141Z,94202.00
2023-05-21T09:55:46.159Z,94209.00
2023-05-21T09:56:46.229Z,94209.00
2023-05-21T09:57:46.827Z,94204.00
2023-05-21T09:58:46.214Z,94215.00
2023-05-21T09:59:46.229Z,94211.00
2023-05-21T10:00:46.239Z,94209.00
2023-05-21T10:01:46.269Z,94205.00
2023-05-21T10:02:46.301Z,94205.00
2023-05-21T10:03:46.893Z,94207.00
2023-05-21T10:04:46.337Z,94205.00
2023-05-21T10:05:46.344Z,94205.00
2023-05-21T10:06:46.368Z,94200.00
2023-05-21T10:07:46.386Z,94202.00
2023-05-21T10:08:46.390Z,94202.00
2023-05-21T10:09:46.439Z,94202.00
2023-05-21T10:10:46.462Z,94204.00
2023-05-21T10:11:46.462Z,94200.00
2023-05-21T10:12:46.459Z,94204.00
2023-05-21T10:13:46.468Z,94204.00
2023-05-21T10:14:46.569Z,94198.00
2023-05-21T10:15:47.803Z,94200.00
2023-05-21T10:16:46.569Z,94198.00
2023-05-21T10:17:46.618Z,94196.00
2023-05-21T10:18:46.582Z,94200.00
2023-05-21T10:19:46.558Z,94200.00
2023-05-21T10:20:46.531Z,94196.00
2023-05-21T10:21:46.528Z,94196.00
2023-05-21T10:22:46.503Z,94196.00
2023-05-21T10:23:46.524Z,94196.00
2023-05-21T10:24:46.509Z,94196.00
2023-05-21T10:25:46.484Z,94192.00
2023-05-21T10:26:46.492Z,94192.00
2023-05-21T10:27:46.510Z,94192.00
2023-05-21T10:28:46.503Z,94192.00
2023-05-21T10:29:46.485Z,94188.00
2023-05-21T10:30:46.463Z,94190.00
2023-05-21T10:31:46.515Z,94188.00
2023-05-21T10:32:46.525Z,94192.00
2023-05-21T10:33:46.458Z,94184.00
2023-05-21T10:34:46.449Z,94184.00
2023-05-21T10:35:46.480Z,94182.00
2023-05-21T10:36:46.436Z,94182.00
2023-05-21T10:37:46.466Z,94184.00
2023-05-21T10:38:46.405Z,94182.00
2023-05-21T10:39:46.415Z,94182.00
2023-05-21T10:40:46.408Z,94180.00
2023-05-21T10:41:46.394Z,94176.00
2023-05-21T10:42:46.390Z,94180.00
2023-05-21T10:43:46.385Z,94174.00
2023-05-21T10:44:46.434Z,94182.00
2023-05-21T10:45:46.441Z,94176.00
2023-05-21T10:46:46.792Z,94174.00
2023-05-21T10:47:46.353Z,94176.00
2023-05-21T10:48:46.332Z,94176.00
2023-05-21T10:49:46.351Z,94178.00
2023-05-21T10:50:46.323Z,94176.00
2023-05-21T10:51:46.329Z,94178.00
2023-05-21T10:52:46.356Z,94174.00
2023-05-21T10:53:46.303Z,94176.00
2023-05-21T10:54:46.322Z,94168.00
2023-05-21T10:55:46.339Z,94174.00
2023-05-21T10:56:46.291Z,94172.00
2023-05-21T10:57:46.290Z,94172.00
2023-05-21T10:58:46.255Z,94166.00
2023-05-21T10:59:46.255Z,94166.00
2023-05-21T11:00:46.247Z,94174.00
2023-05-21T11:01:46.287Z,94178.00
2023-05-21T11:02:46.297Z,94172.00
2023-05-21T11:03:46.297Z,94172.00
2023-05-21T11:04:46.223Z,94170.00
2023-05-21T11:05:46.217Z,94170.00
2023-05-21T11:06:46.224Z,94168.00
2023-05-21T11:07:46.202Z,94170.00
2023-05-21T11:08:46.207Z,94174.00
2023-05-21T11:09:46.200Z,94174.00
2023-05-21T11:10:46.219Z,94172.00
2023-05-21T11:11:46.248Z,94172.00
2023-05-21T11:12:46.174Z,94170.00
2023-05-21T11:13:46.166Z,94164.00
2023-05-21T11:14:46.158Z,94164.00
2023-05-21T11:15:46.163Z,94162.00
2023-05-21T11:16:46.228Z,94164.00
2023-05-21T11:17:46.216Z,94166.00
2023-05-21T11:18:46.178Z,94164.00
2023-05-21T11:19:46.150Z,94166.00
2023-05-21T11:20:46.112Z,94162.00
2023-05-21T11:21:46.100Z,94162.00
2023-05-21T11:22:46.175Z,94170.00
2023-05-21T11:23:46.120Z,94166.00
2023-05-21T11:24:46.082Z,94164.00
2023-05-21T11:25:46.097Z,94160.00
2023-05-21T11:26:46.079Z,94160.00
2023-05-21T11:27:46.081Z,94160.00
2023-05-21T11:28:46.082Z,94158.00
2023-05-21T11:29:46.045Z,94160.00
2023-05-21T11:30:46.087Z,94168.00
2023-05-21T11:31:46.079Z,94168.00
2023-05-21T11:32:46.066Z,94164.00
2023-05-21T11:33:46.026Z,94160.00
2023-05-21T11:34:46.112Z,94166.00
2023-05-21T11:35:46.026Z,94164.00
2023-05-21T11:36:46.311Z,94162.00
2023-05-21T11:37:46.009Z,94162.00
2023-05-21T11:38:46.027Z,94164.00
2023-05-21T11:39:46.009Z,94166.00
2023-05-21T11:40:45.992Z,94162.00
2023-05-21T11:41:45.981Z,94162.00
2023-05-21T11:42:45.974Z,94160.00
2023-05-21T11:43:45.958Z,94153.00
2023-05-21T11:44:45.956Z,94153.00